Barcelona/El Prat Airport

Airport
ICAO code: 
LEBL
IATA Code: 
BCN
Summary
ICAO Region: 
EUR
Territory: 
Location: 
El Prat de Llobregat, Catalonia
Serving: 
Barcelona
Elevation: 
13 ft
Coordinates: 
Aerial View: 
41° 17' 33.506" N, 2° 5' 10.323" E
Airport LOS: 
Parallel Runway Operation
Airport WX: 
Fog
Metar
Observation
LEBL 090400Z 34006KT 300V010 CAVOK 07/M00 Q1011 NOSIG
Station
Barcelona / Aeropuerto
Date/Time
2021-12-09 04:00:00
Wind direction
340°
Wind speed
06 kts
Lowest cloud amount
clouds and visibility OK
Temperature
7°C
Dew point
-0°C
Humidity
61%
QNH
1011 hPa
Weather condition
n/a

International airport 6 nm south west of Barcelona.

Climatology

Dry-summer subtropical ”Mediterranean" climate (Köppen climate classification Csa) - characterized by hot, dry summers and mild winters. During the summer, subtropical high pressure cells dominate, making rainfall unlikely except for the occasional thunderstorm. In the winter, periodic storms bring rain (snow at higher elevations).

Runways

Designator Length Width Surface Rops
2/20 2540 45 ASP Yes/Yes
07R/25L 2660 60 ASP Yes/Yes
07L/25R 3552 45 ASP Yes/Yes

SKYbrary Partners:

Safety knowledge contributed by: